Time;durP1;ratioP1;P1;durP2;ratioP2;P2;SDS_P1;SDS_P2;PMS_P1;PMS_P2;Temp;Humidity;BMP_temperature;BMP_pressure;BME280_temperature;BME280_humidity;BME280_pressure;Samples;Min_cycle;Max_cycle;Signal;HPM_P1;HPM_P2
2021/07/23 00:00:19;;;;;;;8.48;5.53;;;18.10;99.90;;;;;;4841137;29;20144;-78
2021/07/23 00:02:45;;;;;;;9.77;6.10;;;18.20;99.90;;;;;;4840328;29;20034;-77
2021/07/23 00:05:11;;;;;;;9.10;6.55;;;18.40;99.90;;;;;;4831693;29;20039;-77
2021/07/23 00:07:36;;;;;;;10.23;6.55;;;18.50;99.90;;;;;;4838306;29;20412;-77
2021/07/23 00:10:03;;;;;;;9.45;6.18;;;18.60;99.90;;;;;;4841193;29;20117;-78
2021/07/23 00:12:29;;;;;;;10.73;7.05;;;18.70;99.90;;;;;;4823894;29;20050;-77
2021/07/23 00:14:54;;;;;;;12.35;6.57;;;18.80;99.90;;;;;;4831333;29;20038;-78
2021/07/23 00:17:20;;;;;;;8.80;6.13;;;18.60;99.90;;;;;;4835154;29;20117;-77
2021/07/23 00:19:45;;;;;;;9.60;6.25;;;18.50;99.90;;;;;;4839778;29;20041;-77
2021/07/23 00:22:11;;;;;;;10.18;6.40;;;18.50;99.90;;;;;;4838778;29;20046;-77
2021/07/23 00:24:37;;;;;;;8.38;5.68;;;18.50;99.90;;;;;;4838823;29;20475;-78
2021/07/23 00:27:03;;;;;;;10.45;6.50;;;18.30;99.90;;;;;;4840417;29;20050;-77
2021/07/23 00:29:28;;;;;;;11.48;6.78;;;18.20;99.90;;;;;;4838215;29;20116;-79
2021/07/23 00:31:54;;;;;;;10.27;6.60;;;18.10;99.90;;;;;;4841376;29;20040;-77
2021/07/23 00:34:19;;;;;;;9.45;7.07;;;18.10;99.90;;;;;;4840718;29;20072;-77
2021/07/23 00:36:45;;;;;;;11.75;7.10;;;18.30;99.90;;;;;;4837506;29;20034;-77
2021/07/23 00:39:11;;;;;;;9.80;6.63;;;18.40;99.90;;;;;;4837746;29;20038;-77
2021/07/23 00:41:36;;;;;;;12.30;8.15;;;18.40;99.90;;;;;;4841495;29;20038;-78
2021/07/23 00:44:02;;;;;;;9.50;6.93;;;18.50;99.90;;;;;;4840247;29;20034;-77
2021/07/23 00:46:31;;;;;;;12.38;7.53;;;18.40;99.90;;;;;;4834648;29;20062;-77
2021/07/23 00:48:57;;;;;;;12.55;6.93;;;18.40;99.90;;;;;;4822949;29;20137;-78
2021/07/23 00:51:23;;;;;;;10.35;7.38;;;18.50;99.90;;;;;;4821765;29;20098;-77
2021/07/23 00:53:50;;;;;;;11.93;7.32;;;18.70;99.90;;;;;;4836655;29;20042;-77
2021/07/23 00:56:16;;;;;;;12.57;7.63;;;18.70;99.90;;;;;;4837945;29;20045;-77
2021/07/23 00:58:43;;;;;;;11.63;8.15;;;18.70;99.90;;;;;;4837331;29;20053;-78
2021/07/23 01:01:09;;;;;;;12.45;7.63;;;18.70;99.90;;;;;;4833915;29;20046;-77
2021/07/23 01:03:36;;;;;;;9.95;6.72;;;18.50;99.90;;;;;;4837134;29;20034;-77
2021/07/23 01:06:02;;;;;;;13.95;7.22;;;18.50;99.90;;;;;;4839309;29;20086;-77
2021/07/23 01:08:28;;;;;;;12.57;7.40;;;18.60;99.90;;;;;;4839114;29;20046;-77
2021/07/23 01:10:54;;;;;;;11.60;7.28;;;18.50;99.90;;;;;;4837277;29;20034;-77
2021/07/23 01:13:20;;;;;;;13.50;7.20;;;18.40;99.90;;;;;;4839673;29;20042;-78
2021/07/23 01:15:45;;;;;;;10.82;7.20;;;18.60;99.90;;;;;;4840411;29;20140;-77
2021/07/23 01:18:11;;;;;;;11.40;8.02;;;18.70;99.90;;;;;;4840415;29;20577;-77
2021/07/23 01:20:41;;;;;;;11.80;6.95;;;18.50;99.90;;;;;;4835482;29;20048;-77
2021/07/23 01:23:08;;;;;;;11.10;7.07;;;18.50;99.90;;;;;;4835135;29;20033;-77
2021/07/23 01:25:35;;;;;;;12.48;6.95;;;18.50;99.90;;;;;;4838227;29;20049;-78
2021/07/23 01:28:02;;;;;;;12.32;7.05;;;18.50;99.90;;;;;;4832458;29;20052;-78
2021/07/23 01:30:28;;;;;;;9.43;6.47;;;18.60;99.90;;;;;;4829452;29;20456;-78
2021/07/23 01:32:54;;;;;;;13.60;6.38;;;18.70;99.90;;;;;;4825098;29;20045;-80
2021/07/23 01:35:21;;;;;;;9.65;6.47;;;18.60;99.90;;;;;;4837050;29;20064;-77
2021/07/23 01:37:47;;;;;;;14.27;9.70;;;18.70;99.90;;;;;;4841193;29;20505;-78
2021/07/23 01:40:14;;;;;;;14.95;10.30;;;18.60;99.90;;;;;;4840730;29;20042;-78
2021/07/23 01:42:41;;;;;;;11.55;7.68;;;18.60;99.90;;;;;;4843632;29;20046;-77
2021/07/23 01:45:08;;;;;;;29.17;8.18;;;18.70;99.90;;;;;;4840990;29;20114;-77
2021/07/23 01:47:33;;;;;;;11.55;7.43;;;18.60;99.90;;;;;;4836011;29;20051;-78
2021/07/23 01:49:59;;;;;;;14.82;10.02;;;18.60;99.90;;;;;;4831901;29;20041;-77
2021/07/23 01:52:25;;;;;;;15.43;11.23;;;18.70;99.90;;;;;;4841803;29;20061;-77
2021/07/23 01:54:51;;;;;;;17.67;12.85;;;18.60;99.90;;;;;;4842044;29;20041;-77
2021/07/23 01:57:17;;;;;;;17.70;13.93;;;18.60;99.90;;;;;;4828344;29;20042;-78
2021/07/23 01:59:43;;;;;;;21.35;15.23;;;18.50;99.90;;;;;;4840948;29;20050;-78
2021/07/23 02:02:08;;;;;;;17.15;13.25;;;18.40;99.90;;;;;;4822955;29;20046;-78
2021/07/23 02:04:34;;;;;;;19.92;15.10;;;18.40;99.90;;;;;;4825712;29;20102;-77
2021/07/23 02:07:00;;;;;;;18.92;13.65;;;18.40;99.90;;;;;;4835065;29;20058;-77
2021/07/23 02:09:26;;;;;;;21.20;15.77;;;18.50;99.90;;;;;;4843083;29;20049;-78
2021/07/23 02:11:52;;;;;;;22.50;17.95;;;18.50;99.90;;;;;;4841722;29;20046;-78
2021/07/23 02:14:18;;;;;;;26.55;18.00;;;18.50;99.90;;;;;;4842990;29;20038;-78
2021/07/23 02:16:43;;;;;;;24.15;18.98;;;18.60;99.90;;;;;;4841004;29;20563;-77
2021/07/23 02:19:09;;;;;;;27.33;18.65;;;18.50;99.90;;;;;;4841800;29;20163;-77
2021/07/23 02:21:35;;;;;;;23.98;18.17;;;18.50;99.90;;;;;;4844374;29;20124;-77
2021/07/23 02:24:02;;;;;;;19.92;14.65;;;18.50;99.90;;;;;;4835412;29;20038;-77
2021/07/23 02:26:27;;;;;;;16.98;11.88;;;18.40;99.90;;;;;;4840200;29;20041;-77
2021/07/23 02:28:53;;;;;;;15.98;11.70;;;18.30;99.90;;;;;;4842339;29;20413;-78
2021/07/23 02:31:19;;;;;;;13.48;10.15;;;18.30;99.90;;;;;;4841024;29;20037;-78
2021/07/23 02:33:45;;;;;;;15.57;10.55;;;18.20;99.90;;;;;;4840945;29;20424;-77
2021/07/23 02:36:12;;;;;;;14.23;9.27;;;18.20;99.90;;;;;;4840219;29;20114;-78
2021/07/23 02:38:38;;;;;;;13.70;9.13;;;18.20;99.90;;;;;;4838272;29;20093;-77
2021/07/23 02:41:04;;;;;;;12.18;9.48;;;18.20;99.90;;;;;;4840112;29;20037;-78
2021/07/23 02:43:30;;;;;;;10.10;7.95;;;18.20;99.90;;;;;;4834324;29;20054;-78
2021/07/23 02:45:55;;;;;;;14.18;7.65;;;18.20;99.90;;;;;;4829590;29;20070;-78
2021/07/23 02:48:21;;;;;;;12.88;8.18;;;18.10;99.90;;;;;;4828852;29;20053;-78
2021/07/23 02:50:47;;;;;;;13.93;7.72;;;18.20;99.90;;;;;;4842827;29;20056;-77
2021/07/23 02:53:13;;;;;;;11.10;6.78;;;18.10;99.90;;;;;;4841036;29;20037;-77
2021/07/23 02:55:38;;;;;;;11.68;7.28;;;17.90;99.90;;;;;;4840656;29;20075;-77
2021/07/23 02:58:04;;;;;;;9.20;5.95;;;18.10;99.90;;;;;;4842020;29;20062;-78
2021/07/23 03:00:30;;;;;;;10.02;5.50;;;18.40;99.90;;;;;;4841254;29;20446;-78
2021/07/23 03:02:56;;;;;;;10.00;6.85;;;18.10;99.90;;;;;;4836532;29;20397;-79
2021/07/23 03:05:22;;;;;;;8.88;6.00;;;18.00;99.90;;;;;;4836815;29;20046;-79
2021/07/23 03:07:53;;;;;;;10.30;6.82;;;17.80;99.90;;;;;;4836764;29;20050;-78
2021/07/23 03:10:19;;;;;;;9.98;5.78;;;17.90;99.90;;;;;;4831257;29;20045;-77
2021/07/23 03:12:45;;;;;;;16.02;7.18;;;17.90;99.90;;;;;;4836679;29;20042;-77
2021/07/23 03:15:11;;;;;;;10.00;5.35;;;17.80;99.90;;;;;;4834306;29;20957;-79
2021/07/23 03:17:37;;;;;;;7.25;5.63;;;17.70;99.90;;;;;;4835350;29;20509;-79
2021/07/23 03:20:04;;;;;;;12.18;5.35;;;17.60;99.90;;;;;;4826023;29;20053;-78
2021/07/23 03:22:29;;;;;;;7.32;5.00;;;17.50;99.90;;;;;;4836505;29;20094;-79
2021/07/23 03:24:56;;;;;;;10.18;5.72;;;17.40;99.90;;;;;;4834561;29;20065;-77
2021/07/23 03:27:22;;;;;;;10.77;5.63;;;17.30;99.90;;;;;;4831216;29;20092;-78
2021/07/23 03:29:48;;;;;;;8.10;5.22;;;17.40;99.90;;;;;;4823406;29;20045;-78
2021/07/23 03:32:14;;;;;;;11.05;5.78;;;17.60;99.90;;;;;;4827959;29;20038;-77
2021/07/23 03:34:40;;;;;;;9.65;5.80;;;17.70;99.90;;;;;;4833257;29;20042;-77
2021/07/23 03:37:05;;;;;;;8.05;5.03;;;17.60;99.90;;;;;;4817859;29;20042;-78
2021/07/23 03:39:31;;;;;;;7.53;5.28;;;17.40;99.90;;;;;;4833454;29;20197;-78
2021/07/23 03:41:57;;;;;;;10.48;5.28;;;17.30;99.90;;;;;;4834424;29;20041;-77
2021/07/23 03:44:23;;;;;;;8.18;5.00;;;17.20;99.90;;;;;;4833579;29;20067;-78
2021/07/23 03:46:48;;;;;;;10.38;4.63;;;17.00;99.90;;;;;;4834169;29;20034;-78
2021/07/23 03:49:14;;;;;;;7.78;4.57;;;17.20;99.90;;;;;;4831705;29;20041;-77
2021/07/23 03:51:40;;;;;;;8.73;4.53;;;17.20;99.90;;;;;;4833046;29;20630;-78
2021/07/23 03:54:06;;;;;;;11.85;5.55;;;16.90;99.90;;;;;;4832638;29;20060;-78
2021/07/23 03:56:31;;;;;;;9.10;5.10;;;17.00;99.90;;;;;;4835481;29;20038;-78
2021/07/23 03:58:57;;;;;;;7.43;4.80;;;16.80;99.90;;;;;;4826344;29;20030;-78
2021/07/23 04:01:23;;;;;;;7.00;4.72;;;16.90;99.90;;;;;;4828232;29;20493;-78
2021/07/23 04:03:48;;;;;;;9.40;5.38;;;16.60;99.90;;;;;;4832744;29;20505;-78
2021/07/23 04:06:14;;;;;;;7.47;5.13;;;16.70;99.90;;;;;;4834628;29;20101;-78
2021/07/23 04:08:41;;;;;;;6.95;4.95;;;16.70;99.90;;;;;;4833890;29;20488;-77
2021/07/23 04:11:13;;;;;;;9.48;5.15;;;16.90;99.90;;;;;;4833685;29;20540;-81
2021/07/23 04:13:39;;;;;;;9.75;4.50;;;16.80;99.90;;;;;;4833843;29;20125;-78
2021/07/23 04:16:05;;;;;;;8.77;4.38;;;16.70;99.90;;;;;;4832568;29;20120;-78
2021/07/23 04:18:30;;;;;;;7.05;3.78;;;16.80;99.90;;;;;;4831891;29;20030;-78
2021/07/23 04:20:56;;;;;;;6.93;4.40;;;16.90;99.90;;;;;;4833574;29;20049;-80
2021/07/23 04:23:22;;;;;;;7.63;4.57;;;16.90;99.90;;;;;;4832508;29;20030;-78
2021/07/23 04:25:47;;;;;;;12.43;4.70;;;16.70;99.90;;;;;;4833872;29;20458;-77
2021/07/23 04:28:13;;;;;;;7.40;4.47;;;16.60;99.90;;;;;;4834072;29;20438;-77
2021/07/23 04:30:39;;;;;;;7.45;4.30;;;16.80;99.90;;;;;;4833281;29;20041;-78
2021/07/23 04:33:04;;;;;;;9.40;4.93;;;16.70;99.90;;;;;;4823339;29;20053;-77
2021/07/23 04:35:30;;;;;;;8.38;4.15;;;16.70;99.90;;;;;;4833205;29;20038;-77
2021/07/23 04:37:55;;;;;;;7.85;4.22;;;16.90;99.90;;;;;;4833033;29;20093;-77
2021/07/23 04:40:21;;;;;;;9.57;4.43;;;17.10;99.90;;;;;;4824648;29;20038;-78
2021/07/23 04:42:47;;;;;;;7.53;3.85;;;17.10;99.90;;;;;;4825181;29;20106;-79
2021/07/23 04:45:13;;;;;;;9.82;4.68;;;17.10;99.90;;;;;;4834712;29;20046;-77
2021/07/23 04:47:39;;;;;;;13.23;5.43;;;17.00;99.90;;;;;;4827321;29;20142;-77
2021/07/23 04:50:05;;;;;;;9.95;4.68;;;17.00;99.90;;;;;;4833599;29;20121;-79
2021/07/23 04:52:31;;;;;;;7.28;4.15;;;17.00;99.90;;;;;;4833247;29;20113;-78
2021/07/23 04:54:57;;;;;;;9.23;4.53;;;17.10;99.90;;;;;;4831058;29;20067;-78
2021/07/23 04:57:28;;;;;;;9.88;4.97;;;17.20;99.90;;;;;;4832965;29;20046;-81
2021/07/23 04:59:54;;;;;;;8.65;4.47;;;16.90;99.90;;;;;;4828334;29;20049;-78
2021/07/23 05:02:20;;;;;;;7.78;4.70;;;17.00;99.90;;;;;;4832877;29;20661;-77
2021/07/23 05:04:45;;;;;;;7.13;4.22;;;17.20;99.90;;;;;;4832657;29;20454;-77
2021/07/23 05:07:11;;;;;;;7.80;4.05;;;17.10;99.90;;;;;;4833559;29;20058;-77
2021/07/23 05:09:37;;;;;;;9.02;5.38;;;17.10;99.90;;;;;;4834627;29;20495;-79
2021/07/23 05:12:03;;;;;;;8.05;4.30;;;17.30;99.90;;;;;;4832507;29;20038;-79
2021/07/23 05:14:31;;;;;;;6.20;4.13;;;17.20;99.90;;;;;;4832134;29;20078;-77
2021/07/23 05:16:58;;;;;;;12.63;4.82;;;17.10;99.90;;;;;;4833565;29;20382;-78
2021/07/23 05:19:24;;;;;;;7.38;4.78;;;17.30;99.90;;;;;;4833134;29;20042;-78
2021/07/23 05:21:50;;;;;;;8.38;4.45;;;17.40;99.90;;;;;;4831665;29;20720;-78
2021/07/23 05:24:16;;;;;;;7.10;4.28;;;17.30;99.90;;;;;;4834232;29;20057;-78
2021/07/23 05:26:42;;;;;;;8.73;4.53;;;17.30;99.90;;;;;;4832319;29;20038;-78
2021/07/23 05:29:09;;;;;;;7.85;4.93;;;17.40;99.90;;;;;;4828596;29;20440;-79
2021/07/23 05:31:35;;;;;;;6.50;4.13;;;17.50;99.90;;;;;;4829778;29;20038;-79
2021/07/23 05:34:02;;;;;;;6.72;4.43;;;17.60;99.90;;;;;;4831694;29;20046;-82
2021/07/23 05:36:28;;;;;;;8.63;4.93;;;17.60;99.90;;;;;;4828409;29;20389;-81
2021/07/23 05:38:54;;;;;;;6.93;4.72;;;17.60;99.90;;;;;;4831775;29;20547;-82
2021/07/23 05:41:20;;;;;;;7.93;5.15;;;17.60;99.90;;;;;;4833462;29;20952;-80
2021/07/23 05:43:47;;;;;;;8.48;4.72;;;17.60;99.90;;;;;;4832036;29;20113;-79
2021/07/23 05:46:13;;;;;;;7.55;4.35;;;17.70;99.90;;;;;;4815137;29;20490;-79
2021/07/23 05:48:40;;;;;;;11.57;5.30;;;17.80;99.90;;;;;;4815767;29;20061;-80
2021/07/23 05:51:07;;;;;;;7.05;4.82;;;17.80;99.90;;;;;;4832289;29;20102;-80
2021/07/23 05:53:33;;;;;;;9.73;4.38;;;17.90;99.90;;;;;;4833071;29;20136;-79
2021/07/23 05:56:00;;;;;;;7.65;4.68;;;17.90;99.90;;;;;;4834160;29;20030;-79
2021/07/23 05:58:26;;;;;;;8.98;4.88;;;17.90;99.90;;;;;;4833507;29;20517;-80
2021/07/23 06:00:52;;;;;;;6.30;4.78;;;18.00;99.90;;;;;;4834830;29;20041;-80
2021/07/23 06:03:18;;;;;;;8.25;5.38;;;18.00;99.90;;;;;;4834326;29;20042;-81
2021/07/23 06:05:44;;;;;;;10.85;4.68;;;17.90;99.90;;;;;;4834243;29;20046;-79
2021/07/23 06:08:09;;;;;;;9.25;4.95;;;17.90;99.90;;;;;;4831824;29;20057;-79
2021/07/23 06:10:35;;;;;;;8.90;4.82;;;18.00;99.90;;;;;;4834590;29;20081;-80
2021/07/23 06:13:01;;;;;;;9.95;4.47;;;18.20;99.90;;;;;;4833205;29;20451;-80
2021/07/23 06:15:26;;;;;;;9.52;4.90;;;18.40;99.90;;;;;;4835047;29;20045;-81
2021/07/23 06:17:52;;;;;;;6.72;4.35;;;18.50;99.90;;;;;;4835383;29;20368;-80
2021/07/23 06:20:18;;;;;;;8.43;5.68;;;18.50;99.90;;;;;;4836149;29;20065;-80
2021/07/23 06:22:44;;;;;;;9.98;5.10;;;18.60;99.90;;;;;;4836537;29;20280;-80
2021/07/23 06:25:10;;;;;;;8.85;4.97;;;18.60;99.90;;;;;;4845428;29;20174;-78
2021/07/23 06:27:36;;;;;;;8.52;5.43;;;18.60;99.90;;;;;;4835817;29;20529;-79
2021/07/23 06:30:03;;;;;;;8.35;4.85;;;18.70;99.90;;;;;;4835018;29;20037;-80
2021/07/23 06:32:32;;;;;;;7.75;5.25;;;18.70;99.90;;;;;;4835828;29;20409;-80
2021/07/23 06:34:59;;;;;;;9.57;4.82;;;18.80;99.90;;;;;;4833081;29;20094;-80
2021/07/23 06:37:25;;;;;;;7.88;5.40;;;18.70;99.90;;;;;;4828530;29;20508;-79
2021/07/23 06:39:51;;;;;;;9.07;5.47;;;18.70;99.90;;;;;;4835137;29;20046;-79
2021/07/23 06:42:19;;;;;;;6.72;4.43;;;18.70;99.90;;;;;;4831756;29;20057;-79
2021/07/23 06:44:45;;;;;;;8.40;4.80;;;18.70;99.90;;;;;;4833826;29;20576;-79
2021/07/23 06:47:11;;;;;;;6.65;4.57;;;18.80;99.90;;;;;;4833925;29;20460;-79
2021/07/23 06:49:36;;;;;;;9.00;4.57;;;18.90;99.90;;;;;;4833288;29;20041;-79
2021/07/23 06:52:03;;;;;;;8.63;4.85;;;18.90;99.90;;;;;;4833062;29;20041;-79
2021/07/23 06:54:29;;;;;;;7.75;5.30;;;19.20;99.90;;;;;;4835923;29;20072;-81
2021/07/23 06:56:55;;;;;;;7.72;4.88;;;19.40;99.90;;;;;;4836056;29;20073;-79
2021/07/23 06:59:21;;;;;;;8.63;4.72;;;19.40;99.90;;;;;;4835294;29;20038;-80
2021/07/23 07:01:47;;;;;;;7.07;4.43;;;19.40;99.90;;;;;;4834641;29;20050;-79
2021/07/23 07:04:12;;;;;;;7.20;4.28;;;19.50;99.90;;;;;;4832686;29;20500;-80
2021/07/23 07:06:38;;;;;;;6.30;4.18;;;19.90;99.90;;;;;;4835980;29;20077;-79
2021/07/23 07:09:04;;;;;;;8.85;4.22;;;20.10;99.90;;;;;;4835038;29;20054;-80
2021/07/23 07:11:30;;;;;;;7.57;4.03;;;20.20;99.90;;;;;;4819341;29;20505;-79
2021/07/23 07:13:55;;;;;;;7.18;4.80;;;20.40;99.90;;;;;;4834879;29;20038;-79
2021/07/23 07:16:21;;;;;;;8.80;4.28;;;20.60;99.90;;;;;;4834722;29;20034;-79
2021/07/23 07:18:47;;;;;;;9.00;4.30;;;20.80;99.90;;;;;;4833878;29;20079;-80
2021/07/23 07:21:14;;;;;;;6.50;4.28;;;21.00;99.90;;;;;;4836042;29;20045;-80
2021/07/23 07:23:43;;;;;;;6.35;3.85;;;21.20;99.90;;;;;;4834671;29;20061;-79
2021/07/23 07:26:12;;;;;;;7.38;3.85;;;21.30;99.90;;;;;;4830641;29;20049;-79
2021/07/23 07:28:38;;;;;;;8.52;4.80;;;21.50;99.90;;;;;;4827364;29;20054;-78
2021/07/23 07:31:04;;;;;;;12.10;4.97;;;21.80;99.90;;;;;;4834362;29;20182;-77
2021/07/23 07:33:30;;;;;;;6.70;4.43;;;22.60;99.90;;;;;;4836251;29;20042;-77
2021/07/23 07:35:56;;;;;;;8.05;3.88;;;23.50;99.90;;;;;;4833784;29;20045;-77
2021/07/23 07:38:22;;;;;;;7.57;4.03;;;24.30;98.70;;;;;;4829836;29;20117;-78
2021/07/23 07:40:47;;;;;;;6.32;3.83;;;25.20;97.90;;;;;;4832876;29;20137;-78
2021/07/23 07:43:13;;;;;;;8.93;4.03;;;25.90;97.00;;;;;;4833842;29;20071;-77
2021/07/23 07:45:39;;;;;;;8.82;4.50;;;26.50;96.50;;;;;;4834453;29;20106;-77
2021/07/23 07:48:05;;;;;;;6.85;3.90;;;26.50;95.90;;;;;;4816563;29;20190;-77
2021/07/23 07:50:31;;;;;;;6.60;3.30;;;26.70;95.40;;;;;;4831534;29;20042;-77
2021/07/23 07:52:57;;;;;;;8.70;3.90;;;27.20;95.80;;;;;;4832414;29;20120;-77
2021/07/23 07:55:23;;;;;;;6.07;3.30;;;26.90;94.80;;;;;;4834527;29;20074;-77
2021/07/23 07:57:48;;;;;;;7.80;4.53;;;27.00;94.80;;;;;;4834949;29;20072;-77
2021/07/23 08:00:14;;;;;;;6.30;3.97;;;27.10;94.80;;;;;;4835638;29;20095;-77
2021/07/23 08:02:40;;;;;;;7.43;3.72;;;26.70;94.60;;;;;;4834976;29;20061;-77
2021/07/23 08:05:06;;;;;;;6.45;4.45;;;26.20;94.90;;;;;;4833714;29;20108;-77
2021/07/23 08:07:34;;;;;;;9.60;4.38;;;26.40;95.10;;;;;;4818827;29;20137;-77
2021/07/23 08:10:03;;;;;;;8.90;4.03;;;26.00;95.20;;;;;;4835611;29;20132;-77
2021/07/23 08:12:30;;;;;;;7.68;4.30;;;25.70;96.00;;;;;;4834023;29;20038;-77
2021/07/23 08:14:57;;;;;;;7.72;4.00;;;25.80;96.00;;;;;;4832844;29;20419;-77
2021/07/23 08:17:23;;;;;;;9.93;3.70;;;24.90;95.80;;;;;;4834563;29;20658;-77
2021/07/23 08:19:49;;;;;;;8.43;3.90;;;24.90;96.20;;;;;;4834994;29;20038;-78
2021/07/23 08:22:16;;;;;;;6.30;3.72;;;24.30;98.30;;;;;;4818468;29;20046;-77
2021/07/23 08:24:42;;;;;;;9.65;4.82;;;24.20;98.80;;;;;;4833280;29;20038;-78
2021/07/23 08:27:09;;;;;;;6.78;4.43;;;23.60;99.50;;;;;;4833039;29;20050;-78
2021/07/23 08:29:34;;;;;;;7.50;3.85;;;23.50;99.90;;;;;;4819053;29;20049;-79
2021/07/23 08:32:08;;;;;;;7.45;3.92;;;23.70;99.90;;;;;;4832505;29;20044;-77
2021/07/23 08:34:34;;;;;;;7.53;5.13;;;23.40;99.10;;;;;;4834289;29;20042;-77
2021/07/23 08:37:00;;;;;;;6.85;4.28;;;23.30;99.90;;;;;;4829899;29;20067;-77
2021/07/23 08:39:25;;;;;;;9.52;5.05;;;23.30;99.90;;;;;;4816496;29;20031;-78
2021/07/23 08:41:51;;;;;;;6.50;4.25;;;23.40;99.90;;;;;;4819799;29;20098;-77
2021/07/23 08:44:17;;;;;;;6.65;4.07;;;23.40;99.90;;;;;;4831580;29;20545;-78
2021/07/23 08:46:42;;;;;;;8.30;4.88;;;23.50;99.90;;;;;;4833353;29;20058;-75
2021/07/23 08:49:08;;;;;;;7.45;4.63;;;23.50;99.90;;;;;;4831791;29;20054;-75
2021/07/23 08:51:34;;;;;;;7.93;5.15;;;23.70;99.90;;;;;;4833847;29;20049;-76
2021/07/23 08:54:00;;;;;;;8.02;4.75;;;23.60;99.80;;;;;;4831992;29;20049;-74
2021/07/23 08:56:25;;;;;;;10.13;5.35;;;23.60;99.30;;;;;;4832969;29;20030;-75
2021/07/23 08:58:51;;;;;;;10.23;4.93;;;23.50;99.30;;;;;;4830126;29;20038;-75
2021/07/23 09:01:17;;;;;;;7.70;5.03;;;23.40;99.90;;;;;;4830122;29;20045;-75
2021/07/23 09:03:43;;;;;;;7.22;5.05;;;23.60;99.90;;;;;;4834250;29;20382;-75
2021/07/23 09:06:18;;;;;;;8.50;4.97;;;23.90;99.80;;;;;;4834963;29;20034;-75
2021/07/23 09:08:52;;;;;;;7.22;4.95;;;23.90;99.90;;;;;;4834186;29;20079;-75
2021/07/23 09:11:27;;;;;;;7.32;4.38;;;24.10;99.60;;;;;;4833844;29;20045;-74
2021/07/23 09:14:13;;;;;;;10.50;5.70;;;24.40;98.80;;;;;;4832797;29;20049;-75
2021/07/23 09:16:39;;;;;;;10.40;5.45;;;24.40;99.90;;;;;;4832299;29;20122;-75
2021/07/23 09:19:09;;;;;;;8.90;4.95;;;24.40;99.60;;;;;;4834070;29;20221;-75
2021/07/23 09:21:37;;;;;;;10.38;4.97;;;24.40;99.20;;;;;;4834780;29;20041;-75
2021/07/23 09:24:07;;;;;;;7.13;4.63;;;24.60;99.10;;;;;;4832619;29;20053;-75
2021/07/23 09:26:43;;;;;;;10.07;4.93;;;24.60;98.60;;;;;;4833026;29;20548;-75
2021/07/23 09:29:10;;;;;;;11.15;4.90;;;24.70;99.00;;;;;;4831873;29;20131;-75
2021/07/23 09:31:36;;;;;;;11.05;5.45;;;24.60;98.20;;;;;;4834838;29;20046;-75
2021/07/23 09:34:06;;;;;;;9.00;5.05;;;24.90;98.80;;;;;;4834116;29;20042;-75
2021/07/23 09:36:33;;;;;;;7.95;4.88;;;25.00;98.10;;;;;;4833333;29;20171;-78
2021/07/23 09:39:06;;;;;;;7.10;4.63;;;24.60;98.00;;;;;;4824881;29;20063;-74
2021/07/23 09:41:33;;;;;;;;;;;24.90;98.60;;;;;;4832507;29;20049;-76
2021/07/23 09:44:08;;;;;;;9.20;5.40;;;25.00;98.00;;;;;;4831870;29;20005;-75
2021/07/23 09:46:41;;;;;;;7.03;4.47;;;24.90;97.70;;;;;;4832498;29;20124;-75
2021/07/23 09:49:27;;;;;;;8.98;4.68;;;24.80;98.50;;;;;;4815744;29;20058;-74
2021/07/23 09:52:03;;;;;;;8.55;5.05;;;25.10;98.30;;;;;;4831798;29;20038;-74
2021/07/23 09:54:29;;;;;;;6.80;4.70;;;25.40;98.70;;;;;;4831434;29;20112;-75
2021/07/23 09:56:55;;;;;;;7.35;4.38;;;25.90;97.40;;;;;;4832615;29;20138;-75
2021/07/23 09:59:53;;;;;;;6.78;4.57;;;25.90;97.10;;;;;;4835540;29;20593;-75
2021/07/23 10:02:23;;;;;;;6.38;4.85;;;26.00;97.80;;;;;;4837630;29;20107;-75
2021/07/23 10:04:55;;;;;;;8.40;5.32;;;26.10;97.40;;;;;;4838070;29;20045;-75
2021/07/23 10:07:24;;;;;;;9.30;5.18;;;25.90;97.50;;;;;;4836860;29;20117;-75
2021/07/23 10:09:53;;;;;;;8.98;5.03;;;25.80;97.10;;;;;;4837438;29;20041;-75
2021/07/23 10:12:19;;;;;;;9.95;5.25;;;26.00;98.10;;;;;;4835927;29;20121;-75
2021/07/23 10:14:46;;;;;;;6.20;4.50;;;26.20;97.10;;;;;;4836474;29;20166;-75
2021/07/23 10:17:13;;;;;;;9.02;4.93;;;26.20;96.90;;;;;;4835820;29;20786;-75
2021/07/23 10:19:39;;;;;;;6.53;4.78;;;26.10;97.20;;;;;;4836638;29;20038;-75
2021/07/23 10:22:06;;;;;;;8.48;5.57;;;25.90;97.40;;;;;;4834569;29;20049;-75
2021/07/23 10:24:36;;;;;;;8.00;5.28;;;26.30;98.10;;;;;;4818063;29;20516;-75
2021/07/23 10:27:11;;;;;;;8.60;5.47;;;26.20;98.10;;;;;;4834975;29;20042;-75
2021/07/23 10:29:51;;;;;;;9.45;5.35;;;26.40;97.50;;;;;;4819066;29;20066;-75
2021/07/23 10:32:32;;;;;;;9.57;5.22;;;26.20;97.90;;;;;;4819047;29;20046;-75
2021/07/23 10:35:00;;;;;;;7.88;4.53;;;26.60;97.40;;;;;;4837407;29;20066;-75
2021/07/23 10:37:29;;;;;;;8.27;5.00;;;26.20;96.70;;;;;;4834991;29;20053;-75
2021/07/23 10:40:15;;;;;;;7.50;5.43;;;26.70;97.40;;;;;;4834010;29;20077;-77
2021/07/23 10:42:43;;;;;;;7.72;5.18;;;27.10;97.00;;;;;;4835354;29;20033;-75
2021/07/23 10:45:15;;;;;;;9.05;5.03;;;26.90;96.30;;;;;;4833713;29;20050;-75
2021/07/23 10:47:45;;;;;;;9.95;4.75;;;27.10;96.90;;;;;;4835025;29;20148;-75
2021/07/23 10:50:20;;;;;;;6.30;5.20;;;27.10;97.00;;;;;;4834563;29;20052;-75
2021/07/23 10:52:46;;;;;;;8.45;4.85;;;27.10;96.20;;;;;;4834404;29;20451;-75
2021/07/23 10:55:27;;;;;;;8.65;5.70;;;26.90;94.70;;;;;;4830963;29;20270;-75
2021/07/23 10:58:05;;;;;;;10.70;4.90;;;26.80;95.20;;;;;;4834760;29;20597;-75
2021/07/23 11:00:43;;;;;;;7.40;5.20;;;26.70;94.70;;;;;;4837163;29;20048;-75
2021/07/23 11:03:08;;;;;;;6.63;4.75;;;26.90;96.90;;;;;;4835846;29;20038;-75
2021/07/23 11:05:35;;;;;;;8.77;4.93;;;27.30;96.40;;;;;;4835179;29;20053;-75
2021/07/23 11:08:00;;;;;;;7.00;5.03;;;27.20;97.10;;;;;;4834976;29;20053;-78
2021/07/23 11:10:26;;;;;;;8.00;5.35;;;27.10;95.50;;;;;;4835826;29;20046;-75
2021/07/23 11:12:52;;;;;;;6.30;4.93;;;27.00;96.20;;;;;;4836310;29;21008;-78
2021/07/23 11:15:18;;;;;;;8.10;5.20;;;27.30;96.30;;;;;;4835903;29;20073;-74
2021/07/23 11:17:53;;;;;;;9.38;5.20;;;27.60;96.30;;;;;;4833946;29;20105;-76
2021/07/23 11:20:26;;;;;;;7.63;4.40;;;27.50;95.30;;;;;;4835925;29;20038;-75
2021/07/23 11:22:53;;;;;;;5.88;3.95;;;27.50;96.00;;;;;;4832893;29;20046;-76
2021/07/23 11:25:19;;;;;;;7.22;4.85;;;27.50;95.00;;;;;;4836625;29;20068;-78
2021/07/23 11:27:49;;;;;;;6.68;4.57;;;27.30;94.40;;;;;;4835082;29;20050;-75
2021/07/23 11:30:20;;;;;;;8.15;5.47;;;27.30;95.40;;;;;;4836148;29;20867;-74
2021/07/23 11:32:59;;;;;;;9.40;5.72;;;26.90;95.40;;;;;;4833284;29;20066;-75
2021/07/23 11:35:26;;;;;;;6.93;4.65;;;27.10;95.60;;;;;;4836104;29;20102;-75
2021/07/23 11:37:53;;;;;;;6.95;5.05;;;27.30;95.90;;;;;;4831065;29;20137;-75
2021/07/23 11:40:24;;;;;;;6.70;5.13;;;27.60;96.30;;;;;;4830469;29;20545;-75
2021/07/23 11:42:56;;;;;;;7.55;4.50;;;27.80;94.90;;;;;;4835120;29;20037;-75
2021/07/23 11:45:31;;;;;;;7.47;5.13;;;27.60;94.90;;;;;;4832657;29;20378;-76
2021/07/23 11:48:06;;;;;;;10.30;5.78;;;27.80;95.30;;;;;;4832679;29;20137;-75
2021/07/23 11:50:31;;;;;;;9.13;5.78;;;28.10;96.00;;;;;;4834501;29;20510;-75
2021/07/23 11:53:03;;;;;;;7.72;4.72;;;28.40;95.60;;;;;;4832116;29;20046;-75
2021/07/23 11:55:40;;;;;;;9.88;5.13;;;28.50;96.40;;;;;;4831086;29;20043;-76
2021/07/23 11:58:06;;;;;;;9.02;4.38;;;28.40;96.10;;;;;;4832490;29;20091;-74
2021/07/23 12:00:32;;;;;;;7.03;4.80;;;28.30;95.30;;;;;;4835886;29;20133;-78
2021/07/23 12:03:18;;;;;;;7.68;4.43;;;28.20;96.10;;;;;;4835025;29;20117;-75
2021/07/23 12:05:44;;;;;;;9.10;5.10;;;28.10;95.20;;;;;;4836154;29;20041;-76
2021/07/23 12:08:10;;;;;;;6.82;5.07;;;27.80;95.80;;;;;;4833251;29;20088;-76
2021/07/23 12:10:36;;;;;;;6.78;4.70;;;28.20;96.80;;;;;;4835802;29;20049;-76
2021/07/23 12:13:06;;;;;;;7.85;5.28;;;28.40;94.80;;;;;;4835160;29;20050;-80
2021/07/23 12:15:43;;;;;;;8.88;5.25;;;28.30;94.90;;;;;;4835235;29;20037;-78
2021/07/23 12:18:14;;;;;;;7.82;4.95;;;28.40;94.80;;;;;;4833832;29;20128;-76
2021/07/23 12:20:40;;;;;;;6.57;4.57;;;28.60;95.60;;;;;;4833954;29;20053;-76
2021/07/23 12:23:05;;;;;;;9.43;5.40;;;28.60;95.40;;;;;;4835101;29;20046;-77
2021/07/23 12:25:43;;;;;;;9.65;4.90;;;28.70;95.50;;;;;;4835966;29;20041;-76
2021/07/23 12:28:18;;;;;;;6.82;4.30;;;28.80;94.60;;;;;;4835130;29;20616;-75
2021/07/23 12:30:46;;;;;;;7.43;4.80;;;29.00;95.20;;;;;;4833846;29;20125;-76
2021/07/23 12:33:13;;;;;;;9.23;5.28;;;29.10;94.90;;;;;;4834233;29;20498;-77
2021/07/23 12:35:39;;;;;;;7.60;4.38;;;29.30;95.20;;;;;;4834121;29;20038;-77
2021/07/23 12:38:07;;;;;;;7.47;5.07;;;29.10;94.20;;;;;;4819165;29;20324;-77
2021/07/23 12:40:59;;;;;;;8.68;4.68;;;29.10;94.00;;;;;;4832657;29;20058;-76
2021/07/23 12:43:26;;;;;;;9.07;4.93;;;29.10;93.60;;;;;;4830392;29;20106;-77